Time;durP1;ratioP1;P1;durP2;ratioP2;P2;SDS_P1;SDS_P2;PMS_P1;PMS_P2;Temp;Humidity;BMP_temperature;BMP_pressure;BME280_temperature;BME280_humidity;BME280_pressure;Samples;Min_cycle;Max_cycle;Signal;HPM_P1;HPM_P2
2022/07/29 00:00:07;;;;;;;9.95;4.53;;;17.00;99.90;;;;;;5078374;28;20125;-94
2022/07/29 00:02:32;;;;;;;13.43;4.60;;;16.90;99.90;;;;;;5081336;28;20070;-95
2022/07/29 00:04:59;;;;;;;10.15;5.35;;;17.00;99.90;;;;;;5082664;28;20078;-95
2022/07/29 00:07:25;;;;;;;11.95;5.05;;;16.80;99.90;;;;;;5085538;28;20097;-94
2022/07/29 00:09:51;;;;;;;9.23;4.50;;;16.80;99.90;;;;;;5090644;28;20016;-94
2022/07/29 00:12:17;;;;;;;9.93;5.00;;;16.80;99.90;;;;;;5081905;28;20537;-96
2022/07/29 00:14:43;;;;;;;10.57;4.35;;;16.80;99.90;;;;;;5076829;28;20028;-96
2022/07/29 00:17:09;;;;;;;10.80;4.63;;;16.90;99.90;;;;;;5074256;28;20565;-95
2022/07/29 00:19:35;;;;;;;11.95;4.60;;;17.00;99.90;;;;;;5075246;28;20036;-95
2022/07/29 00:22:01;;;;;;;11.98;4.95;;;16.90;99.90;;;;;;5078826;28;20025;-96
2022/07/29 00:24:27;;;;;;;13.27;4.03;;;17.00;99.90;;;;;;5077198;28;20174;-94
2022/07/29 00:26:53;;;;;;;8.27;5.10;;;17.00;99.90;;;;;;5075980;28;20040;-94
2022/07/29 00:29:35;;;;;;;11.88;4.10;;;17.00;99.90;;;;;;5072728;28;20025;-93
2022/07/29 00:32:05;;;;;;;10.50;4.68;;;17.00;99.90;;;;;;5087631;28;20543;-91
2022/07/29 00:37:15;;;;;;;9.00;4.72;;;17.00;99.90;;;;;;5069064;28;20086;-91
2022/07/29 00:39:41;;;;;;;10.70;4.30;;;17.10;99.90;;;;;;5065291;28;20025;-91
2022/07/29 00:42:07;;;;;;;10.05;4.43;;;17.00;99.90;;;;;;5066308;28;20094;-91
2022/07/29 00:44:41;;;;;;;11.50;4.43;;;17.00;99.90;;;;;;5085808;28;20049;-91
2022/07/29 00:47:10;;;;;;;10.93;4.80;;;17.00;99.90;;;;;;5081450;28;20045;-93
2022/07/29 00:49:36;;;;;;;10.90;4.63;;;17.00;99.90;;;;;;5080841;23;20114;-60
2022/07/29 00:52:06;;;;;;;8.07;3.97;;;17.00;99.90;;;;;;5053814;28;20051;-60
2022/07/29 00:54:33;;;;;;;13.93;4.90;;;17.00;99.90;;;;;;5054549;28;20116;-60
2022/07/29 00:56:59;;;;;;;;;;;17.00;99.90;;;;;;5055142;28;20035;-60
2022/07/29 00:59:26;;;;;;;12.50;5.18;;;17.10;99.90;;;;;;5056901;28;19908;-60
2022/07/29 01:01:53;;;;;;;13.20;4.57;;;17.20;99.90;;;;;;5057400;28;20597;-60
2022/07/29 01:04:20;;;;;;;10.30;4.68;;;17.10;99.90;;;;;;5053868;28;20021;-60
2022/07/29 01:06:50;;;;;;;9.07;4.43;;;17.00;99.90;;;;;;5056837;28;20082;-59
2022/07/29 01:09:18;;;;;;;13.38;4.32;;;17.00;99.90;;;;;;5048595;28;20471;-60
2022/07/29 01:11:44;;;;;;;10.90;3.63;;;17.00;99.90;;;;;;5056568;28;20016;-60
2022/07/29 01:14:11;;;;;;;10.45;4.50;;;17.00;99.90;;;;;;5055605;28;20463;-60
2022/07/29 01:16:51;;;;;;;9.00;4.03;;;17.00;99.90;;;;;;5054756;28;20102;-59
2022/07/29 01:19:50;;;;;;;16.80;4.47;;;17.10;99.90;;;;;;5052055;28;20144;-60
2022/07/29 01:22:25;;;;;;;11.13;4.45;;;17.10;99.90;;;;;;5055691;28;20028;-59
2022/07/29 01:24:57;;;;;;;9.25;3.97;;;17.00;99.90;;;;;;5040589;28;20432;-59
2022/07/29 01:27:38;;;;;;;10.00;3.63;;;17.10;99.90;;;;;;5054861;28;20017;-60
2022/07/29 01:30:07;;;;;;;21.25;5.70;;;17.10;99.90;;;;;;5047645;28;20017;-60
2022/07/29 01:32:36;;;;;;;13.20;4.32;;;17.00;99.90;;;;;;5040636;28;20021;-60
2022/07/29 01:35:18;;;;;;;7.05;3.90;;;17.00;99.90;;;;;;5050778;28;20552;-59
2022/07/29 01:38:16;;;;;;;7.18;4.00;;;17.10;99.90;;;;;;5056326;28;20468;-59
2022/07/29 01:40:49;;;;;;;9.88;4.05;;;17.10;99.90;;;;;;5037664;28;20052;-60
2022/07/29 01:43:20;;;;;;;6.43;3.35;;;17.00;99.90;;;;;;5053500;28;20024;-60
2022/07/29 01:45:55;;;;;;;8.95;3.55;;;17.00;99.90;;;;;;5056132;28;20053;-60
2022/07/29 01:48:37;;;;;;;9.45;3.95;;;17.00;99.90;;;;;;5052792;28;20575;-59
2022/07/29 01:51:19;;;;;;;9.32;3.42;;;16.90;99.90;;;;;;5047296;28;20041;-59
2022/07/29 01:53:50;;;;;;;6.72;3.20;;;16.90;99.90;;;;;;5053581;28;20128;-59
2022/07/29 01:56:19;;;;;;;7.65;3.33;;;16.80;99.90;;;;;;5053188;28;20100;-59
2022/07/29 01:58:47;;;;;;;6.57;3.83;;;16.90;99.90;;;;;;5054960;28;20017;-59
2022/07/29 02:01:14;;;;;;;7.70;3.20;;;16.70;99.90;;;;;;5054718;28;20120;-59
2022/07/29 02:03:43;;;;;;;7.75;2.80;;;16.60;99.90;;;;;;5053786;28;20016;-59
2022/07/29 02:06:11;;;;;;;8.52;3.20;;;16.70;99.90;;;;;;5028761;28;20023;-59
2022/07/29 02:08:37;;;;;;;;;;;16.60;99.90;;;;;;5055001;28;20115;-59
2022/07/29 02:11:05;;;;;;;8.98;3.03;;;16.60;99.90;;;;;;5053359;28;20561;-59
2022/07/29 02:13:34;;;;;;;6.15;3.05;;;16.60;99.90;;;;;;5053721;28;20084;-59
2022/07/29 02:16:02;;;;;;;6.60;2.90;;;16.60;99.90;;;;;;5053859;28;20032;-59
2022/07/29 02:18:30;;;;;;;9.82;2.40;;;16.70;99.90;;;;;;5054187;28;20487;-60
2022/07/29 02:20:58;;;;;;;8.40;3.22;;;16.70;99.90;;;;;;5049413;28;20035;-59
2022/07/29 02:23:24;;;;;;;4.78;2.58;;;16.70;99.90;;;;;;5049521;28;20028;-59
2022/07/29 02:25:56;;;;;;;7.10;3.17;;;16.60;99.90;;;;;;5049897;28;20028;-59
2022/07/29 02:28:24;;;;;;;8.77;2.90;;;16.60;99.90;;;;;;5049871;28;20033;-60
2022/07/29 02:30:52;;;;;;;5.95;2.90;;;16.60;99.90;;;;;;5049615;28;20025;-59
2022/07/29 02:33:19;;;;;;;5.85;2.50;;;16.70;99.90;;;;;;5049277;28;20029;-59
2022/07/29 02:35:47;;;;;;;8.20;2.55;;;16.50;99.90;;;;;;5049207;28;20163;-59
2022/07/29 02:41:05;;;;;;;5.82;2.05;;;16.60;99.90;;;;;;5057820;28;20067;-59
2022/07/29 02:43:34;;;;;;;5.95;2.60;;;16.70;99.90;;;;;;5049244;28;20067;-58
2022/07/29 02:46:02;;;;;;;6.47;2.55;;;16.70;99.90;;;;;;5047912;28;20036;-59
2022/07/29 02:48:38;;;;;;;7.50;2.08;;;16.70;99.90;;;;;;5049309;28;20021;-59
2022/07/29 02:51:23;;;;;;;7.38;2.22;;;16.80;99.90;;;;;;5049284;28;20593;-59
2022/07/29 02:53:53;;;;;;;3.78;2.17;;;16.80;99.90;;;;;;5049157;28;20174;-60
2022/07/29 02:56:26;;;;;;;4.95;2.00;;;16.80;99.90;;;;;;5048913;28;20798;-59
2022/07/29 02:58:58;;;;;;;12.52;2.60;;;16.80;99.90;;;;;;5049318;28;20032;-59
2022/07/29 03:01:28;;;;;;;5.32;2.10;;;16.70;99.90;;;;;;5052038;28;20036;-59
2022/07/29 03:03:55;;;;;;;5.57;2.60;;;16.60;99.90;;;;;;5052852;28;20036;-58
2022/07/29 03:06:23;;;;;;;7.00;1.77;;;16.70;99.90;;;;;;5052948;28;20032;-60
2022/07/29 03:08:50;;;;;;;6.93;2.15;;;16.70;99.90;;;;;;5034719;28;20831;-59
2022/07/29 03:11:16;;;;;;;;;;;16.60;99.90;;;;;;5035092;28;20029;-59
2022/07/29 03:13:42;;;;;;;4.95;1.80;;;16.60;99.90;;;;;;5052609;28;20022;-59
2022/07/29 03:16:09;;;;;;;6.30;2.35;;;16.70;99.90;;;;;;5052642;28;20654;-59
2022/07/29 03:18:36;;;;;;;6.13;2.40;;;16.60;99.90;;;;;;5052574;28;20036;-59
2022/07/29 03:21:02;;;;;;;7.50;2.60;;;16.70;99.90;;;;;;5052421;28;20120;-60
2022/07/29 03:23:28;;;;;;;3.87;1.90;;;16.60;99.90;;;;;;5052309;28;20063;-59
2022/07/29 03:25:55;;;;;;;5.45;2.72;;;16.70;99.90;;;;;;5052494;28;20806;-60
2022/07/29 03:28:21;;;;;;;7.40;2.10;;;16.70;99.90;;;;;;5052654;28;20025;-59
2022/07/29 03:30:47;;;;;;;10.20;1.95;;;16.70;99.90;;;;;;5052125;28;20544;-60
2022/07/29 03:33:13;;;;;;;5.13;2.30;;;16.60;99.90;;;;;;5052262;28;20033;-60
2022/07/29 03:35:38;;;;;;;6.00;2.33;;;16.60;99.90;;;;;;5052255;28;20039;-60
2022/07/29 03:38:04;;;;;;;5.45;1.75;;;16.70;99.90;;;;;;5052018;28;20031;-61
2022/07/29 03:40:48;;;;;;;4.75;2.15;;;16.70;99.90;;;;;;5052090;28;20095;-60
2022/07/29 03:43:17;;;;;;;11.20;2.20;;;16.70;99.90;;;;;;5052121;28;20017;-60
2022/07/29 03:45:47;;;;;;;6.38;2.30;;;16.70;99.90;;;;;;5051851;28;20041;-60
2022/07/29 03:48:16;;;;;;;7.78;2.33;;;16.70;99.90;;;;;;5051828;28;20029;-60
2022/07/29 03:50:42;;;;;;;4.95;2.05;;;16.80;99.90;;;;;;5051685;28;20555;-60
2022/07/29 03:53:08;;;;;;;7.35;1.83;;;16.80;99.90;;;;;;5052046;28;20029;-60
2022/07/29 03:55:39;;;;;;;4.63;1.80;;;16.80;99.90;;;;;;5051927;28;20385;-60
2022/07/29 03:58:07;;;;;;;4.75;2.03;;;16.80;99.90;;;;;;5051993;28;20392;-61
2022/07/29 04:00:34;;;;;;;6.30;1.90;;;16.90;99.90;;;;;;5051778;28;20033;-60
2022/07/29 04:03:01;;;;;;;7.18;1.90;;;16.90;99.90;;;;;;5051564;28;20025;-60
2022/07/29 04:05:27;;;;;;;8.40;2.00;;;17.00;99.90;;;;;;5051836;28;20052;-60
2022/07/29 04:07:52;;;;;;;8.80;2.53;;;17.00;99.90;;;;;;5051650;28;20464;-60
2022/07/29 04:10:18;;;;;;;3.72;2.10;;;17.10;99.90;;;;;;5051608;28;20155;-60
2022/07/29 04:12:45;;;;;;;5.25;2.45;;;17.10;99.90;;;;;;5050971;28;20059;-60
2022/07/29 04:15:11;;;;;;;4.90;2.05;;;17.20;99.90;;;;;;5051336;28;20029;-60
2022/07/29 04:17:36;;;;;;;7.22;2.15;;;17.20;99.90;;;;;;5051310;28;20017;-60
2022/07/29 04:20:03;;;;;;;6.22;1.73;;;17.20;99.90;;;;;;5051278;28;20148;-59
2022/07/29 04:22:29;;;;;;;6.85;2.15;;;17.30;99.90;;;;;;5051490;28;20110;-60
2022/07/29 04:24:55;;;;;;;4.25;1.80;;;17.30;99.90;;;;;;5051240;28;20037;-59
2022/07/29 04:27:20;;;;;;;4.22;1.88;;;17.40;99.90;;;;;;5051237;28;20112;-60
2022/07/29 04:29:46;;;;;;;6.97;1.70;;;17.40;99.90;;;;;;5051210;28;20017;-60
2022/07/29 04:32:12;;;;;;;7.22;2.33;;;17.40;99.90;;;;;;5051169;28;20430;-61
2022/07/29 04:34:37;;;;;;;4.20;2.03;;;17.40;99.90;;;;;;5051300;28;20028;-59
2022/07/29 04:37:03;;;;;;;5.80;1.92;;;17.30;99.90;;;;;;5051178;28;20452;-60
2022/07/29 04:39:29;;;;;;;9.55;3.17;;;17.40;99.90;;;;;;5051178;28;20024;-60
2022/07/29 04:41:55;;;;;;;4.43;2.00;;;17.50;99.90;;;;;;5051233;28;20051;-58
2022/07/29 04:44:21;;;;;;;5.60;2.00;;;17.40;99.90;;;;;;5050862;28;20028;-59
2022/07/29 04:46:47;;;;;;;4.90;1.80;;;17.40;99.90;;;;;;5050778;28;20479;-59
2022/07/29 04:49:12;;;;;;;3.97;1.95;;;17.50;99.90;;;;;;5050558;28;20095;-60
2022/07/29 04:51:38;;;;;;;8.40;2.15;;;17.40;99.90;;;;;;5051057;28;20439;-59
2022/07/29 04:54:04;;;;;;;5.35;1.92;;;17.50;99.90;;;;;;5050695;28;20079;-59
2022/07/29 04:56:30;;;;;;;7.88;1.77;;;17.50;99.90;;;;;;5050689;28;20033;-59
2022/07/29 04:58:56;;;;;;;4.55;2.25;;;17.50;99.90;;;;;;5050623;28;20060;-59
2022/07/29 05:01:21;;;;;;;6.45;2.13;;;17.50;99.90;;;;;;5050404;28;20043;-59
2022/07/29 05:03:47;;;;;;;6.68;2.25;;;17.60;99.90;;;;;;5032665;28;20033;-59
2022/07/29 05:06:13;;;;;;;6.30;2.05;;;17.60;99.90;;;;;;5050561;28;20060;-58
2022/07/29 05:08:38;;;;;;;5.20;1.88;;;17.70;99.90;;;;;;5050471;28;20021;-60
2022/07/29 05:11:04;;;;;;;7.50;2.60;;;17.80;99.90;;;;;;5050338;28;20029;-59
2022/07/29 05:13:30;;;;;;;3.72;1.90;;;17.90;99.90;;;;;;5050381;28;20060;-59
2022/07/29 05:15:58;;;;;;;17.33;3.15;;;17.90;99.90;;;;;;5050468;28;20489;-58
2022/07/29 05:18:24;;;;;;;5.50;2.15;;;17.90;99.90;;;;;;5050386;28;20033;-60
2022/07/29 05:20:50;;;;;;;7.60;2.00;;;18.00;99.90;;;;;;5050115;28;20502;-59
2022/07/29 05:23:16;;;;;;;7.10;2.15;;;18.10;99.90;;;;;;5049636;28;20028;-60
2022/07/29 05:25:42;;;;;;;6.85;2.20;;;18.20;99.90;;;;;;5050016;28;20037;-60
2022/07/29 05:28:08;;;;;;;9.85;2.53;;;18.20;99.90;;;;;;5050277;28;20029;-60
2022/07/29 05:30:33;;;;;;;8.43;2.83;;;18.30;99.90;;;;;;5050335;28;20021;-60
2022/07/29 05:32:59;;;;;;;5.80;2.08;;;18.30;99.90;;;;;;5050258;28;20064;-60
2022/07/29 05:35:25;;;;;;;7.03;1.85;;;18.40;99.90;;;;;;5050271;28;20036;-60
2022/07/29 05:37:50;;;;;;;6.15;2.53;;;18.40;99.90;;;;;;5050027;28;20472;-60
2022/07/29 05:40:16;;;;;;;5.00;2.22;;;18.50;99.90;;;;;;5049959;28;20029;-59
2022/07/29 05:42:42;;;;;;;6.35;2.30;;;18.50;99.90;;;;;;5049896;28;20032;-60
2022/07/29 05:45:08;;;;;;;9.38;3.08;;;18.60;99.90;;;;;;5049940;28;20064;-60
2022/07/29 05:47:34;;;;;;;7.53;2.03;;;18.70;99.90;;;;;;5050121;28;20115;-60
2022/07/29 05:50:00;;;;;;;8.88;2.67;;;18.80;99.90;;;;;;5049896;28;20183;-59
2022/07/29 05:52:25;;;;;;;7.57;2.30;;;18.90;99.90;;;;;;5049866;28;20483;-60
2022/07/29 05:54:51;;;;;;;6.40;2.38;;;19.00;99.90;;;;;;5049914;28;20033;-60
2022/07/29 05:57:24;;;;;;;5.85;2.25;;;19.00;99.90;;;;;;5049832;28;20033;-59
2022/07/29 05:59:51;;;;;;;10.85;3.15;;;19.10;99.90;;;;;;5030001;28;20041;-60
2022/07/29 06:02:17;;;;;;;10.20;2.67;;;19.20;99.90;;;;;;5049858;28;20554;-61
2022/07/29 06:04:43;;;;;;;8.38;2.47;;;19.30;99.90;;;;;;5049844;28;20110;-60
2022/07/29 06:07:09;;;;;;;5.15;2.53;;;19.30;99.90;;;;;;5049869;28;20064;-59
2022/07/29 06:09:35;;;;;;;10.18;2.40;;;19.40;99.90;;;;;;5049798;28;20090;-59
2022/07/29 06:12:00;;;;;;;6.97;2.28;;;19.50;99.90;;;;;;5015537;28;20021;-60
2022/07/29 06:14:28;;;;;;;81.53;8.63;;;19.60;99.90;;;;;;5049805;28;20017;-58
2022/07/29 06:16:54;;;;;;;6.28;2.40;;;19.70;99.90;;;;;;5049682;28;20037;-59
2022/07/29 06:19:20;;;;;;;6.00;3.10;;;19.70;99.90;;;;;;5049942;28;20079;-59
2022/07/29 06:21:46;;;;;;;8.60;2.38;;;19.80;99.90;;;;;;5049503;28;20033;-61
2022/07/29 06:24:13;;;;;;;7.28;2.88;;;19.80;99.90;;;;;;5049738;28;20029;-60
2022/07/29 06:26:40;;;;;;;9.98;3.13;;;20.00;99.90;;;;;;5049867;28;20033;-58
2022/07/29 06:29:07;;;;;;;6.60;2.90;;;20.10;99.90;;;;;;5049626;28;20799;-58
2022/07/29 06:31:32;;;;;;;12.68;3.25;;;20.10;99.90;;;;;;5049711;28;20349;-59
2022/07/29 06:33:58;;;;;;;8.88;2.70;;;20.20;99.90;;;;;;5049617;28;20032;-58
2022/07/29 06:36:24;;;;;;;9.88;2.63;;;20.20;99.90;;;;;;5052654;28;20082;-58
2022/07/29 06:38:49;;;;;;;12.50;2.65;;;20.40;99.90;;;;;;5053524;28;20067;-59
2022/07/29 06:41:15;;;;;;;15.55;3.00;;;20.60;99.90;;;;;;5035351;28;20033;-59
2022/07/29 06:43:43;;;;;;;6.07;2.30;;;20.50;99.90;;;;;;5053291;28;20033;-59
2022/07/29 06:46:14;;;;;;;8.07;3.25;;;20.50;99.90;;;;;;5053383;28;20064;-59
2022/07/29 06:48:42;;;;;;;6.72;3.08;;;20.60;99.90;;;;;;5053369;28;20032;-59
2022/07/29 06:51:08;;;;;;;;;;;20.70;99.90;;;;;;5053968;28;20040;-59
2022/07/29 06:53:34;;;;;;;27.55;10.60;;;20.90;99.90;;;;;;5053298;28;19904;-59
2022/07/29 06:56:02;;;;;;;5.97;2.67;;;20.90;99.90;;;;;;5053154;28;20048;-59
2022/07/29 06:58:28;;;;;;;6.32;2.83;;;20.90;99.90;;;;;;5053101;28;20032;-59
2022/07/29 07:00:55;;;;;;;7.28;2.50;;;20.90;99.90;;;;;;5053245;28;20032;-59
2022/07/29 07:03:22;;;;;;;7.40;2.90;;;21.00;99.90;;;;;;5053156;28;20069;-59
2022/07/29 07:05:48;;;;;;;5.90;2.50;;;20.90;99.90;;;;;;5053208;28;20576;-59
2022/07/29 07:08:15;;;;;;;6.60;2.97;;;20.90;99.90;;;;;;5035162;28;20492;-59
2022/07/29 07:10:42;;;;;;;7.38;3.17;;;21.00;99.90;;;;;;5052917;28;20033;-59
2022/07/29 07:13:08;;;;;;;7.53;3.10;;;21.10;99.90;;;;;;5052796;28;20024;-59
2022/07/29 07:15:35;;;;;;;8.38;3.08;;;21.20;99.90;;;;;;5058411;28;20028;-59
2022/07/29 07:18:01;;;;;;;11.88;3.03;;;21.20;99.90;;;;;;5064121;28;20021;-59
2022/07/29 07:20:26;;;;;;;7.85;3.15;;;21.60;99.90;;;;;;5064199;28;20043;-59
2022/07/29 07:22:52;;;;;;;6.07;2.97;;;21.70;99.90;;;;;;5063638;28;20510;-60
2022/07/29 07:25:18;;;;;;;5.90;2.38;;;21.90;99.90;;;;;;5061493;28;20040;-59
2022/07/29 07:27:47;;;;;;;13.38;2.95;;;22.00;99.90;;;;;;5056147;28;20021;-59
2022/07/29 07:30:13;;;;;;;6.63;2.85;;;22.20;99.90;;;;;;5056944;28;20086;-58
2022/07/29 07:32:39;;;;;;;6.07;2.65;;;22.40;99.90;;;;;;5058631;28;20039;-59
2022/07/29 07:35:07;;;;;;;7.90;3.22;;;22.50;99.90;;;;;;5059826;28;20377;-58
2022/07/29 07:37:33;;;;;;;7.68;2.53;;;22.60;99.90;;;;;;5059608;28;20135;-58
2022/07/29 07:39:59;;;;;;;6.00;3.03;;;22.60;99.90;;;;;;5061925;28;20054;-59
2022/07/29 07:42:25;;;;;;;3.95;2.78;;;22.80;99.90;;;;;;5060622;28;20036;-58
2022/07/29 07:44:51;;;;;;;9.07;2.88;;;22.90;99.90;;;;;;5060787;28;20029;-58
2022/07/29 07:47:19;;;;;;;7.85;2.83;;;23.00;99.90;;;;;;5059630;28;20020;-58
2022/07/29 07:49:47;;;;;;;8.30;3.17;;;23.10;99.90;;;;;;5055283;28;20049;-59
2022/07/29 07:52:15;;;;;;;7.47;2.95;;;23.30;99.90;;;;;;5057039;28;20029;-59
2022/07/29 07:54:42;;;;;;;10.60;2.90;;;23.30;99.90;;;;;;5058888;28;20419;-60
2022/07/29 07:57:09;;;;;;;8.45;3.13;;;23.40;99.90;;;;;;5057536;28;20075;-59
2022/07/29 07:59:34;;;;;;;9.83;3.00;;;23.40;99.90;;;;;;5061991;28;20036;-59
2022/07/29 08:02:00;;;;;;;9.65;3.25;;;23.30;99.90;;;;;;5054431;28;20317;-59
2022/07/29 08:04:26;;;;;;;7.07;3.10;;;23.30;99.90;;;;;;5052221;28;20032;-62
2022/07/29 08:06:54;;;;;;;4.55;2.60;;;23.50;99.90;;;;;;5051936;28;20055;-59
2022/07/29 08:09:20;;;;;;;8.68;3.25;;;23.60;99.90;;;;;;5050648;28;20028;-59
2022/07/29 08:11:46;;;;;;;7.75;2.70;;;23.70;99.90;;;;;;5051834;28;20427;-60
2022/07/29 08:14:13;;;;;;;7.20;2.78;;;23.70;99.40;;;;;;5033297;28;20580;-59
2022/07/29 08:16:40;;;;;;;9.80;2.85;;;23.70;99.80;;;;;;5051644;28;20388;-59
2022/07/29 08:19:06;;;;;;;9.48;3.63;;;23.70;99.90;;;;;;5051489;28;20429;-59
2022/07/29 08:21:31;;;;;;;7.43;3.30;;;23.60;99.80;;;;;;5050987;28;20583;-59
2022/07/29 08:26:45;;;;;;;3.83;2.67;;;23.60;99.90;;;;;;5051434;28;20106;-60
2022/07/29 08:29:10;;;;;;;7.10;3.10;;;23.60;99.90;;;;;;5050863;28;20017;-59
2022/07/29 08:31:37;;;;;;;6.60;3.22;;;23.70;99.90;;;;;;5051136;28;20040;-61
2022/07/29 08:34:04;;;;;;;10.50;3.40;;;24.10;99.90;;;;;;5051086;28;20025;-59
2022/07/29 08:36:30;;;;;;;11.30;5.18;;;24.20;99.00;;;;;;5060577;28;21078;-59
2022/07/29 08:38:56;;;;;;;14.07;4.43;;;24.50;98.90;;;;;;5058238;28;20039;-57
2022/07/29 08:41:22;;;;;;;12.68;3.42;;;24.60;97.80;;;;;;5056362;28;20115;-57
2022/07/29 08:43:49;;;;;;;14.70;3.30;;;24.70;97.40;;;;;;5050930;28;20025;-57
2022/07/29 08:46:16;;;;;;;21.40;4.35;;;25.00;97.60;;;;;;5056209;28;20039;-58
2022/07/29 08:48:42;;;;;;;;;;;25.10;96.60;;;;;;5055090;28;20024;-58
2022/07/29 08:51:12;;;;;;;5.25;3.20;;;25.10;96.40;;;;;;5038714;28;19913;-59
2022/07/29 08:53:42;;;;;;;6.18;3.22;;;25.00;96.20;;;;;;5058328;28;20116;-58
2022/07/29 08:56:13;;;;;;;9.55;3.38;;;25.10;95.80;;;;;;5055475;28;20372;-57
2022/07/29 08:58:39;;;;;;;7.82;3.20;;;25.20;96.20;;;;;;5040526;28;20036;-57
2022/07/29 09:01:07;;;;;;;8.87;3.77;;;25.20;94.80;;;;;;5055520;28;20043;-58
2022/07/29 09:03:35;;;;;;;7.78;2.75;;;25.20;94.10;;;;;;5041092;28;20025;-59
2022/07/29 09:06:02;;;;;;;10.93;3.40;;;25.20;94.90;;;;;;5055828;28;20094;-58
2022/07/29 09:08:30;;;;;;;;;;;25.20;95.50;;;;;;5053436;28;20036;-59
2022/07/29 09:10:56;;;;;;;6.90;3.10;;;25.30;95.80;;;;;;5049352;28;19904;-59
2022/07/29 09:13:22;;;;;;;6.18;3.42;;;25.50;94.80;;;;;;5050232;28;20441;-58
2022/07/29 09:15:48;;;;;;;8.73;3.53;;;25.70;94.00;;;;;;5050229;28;20496;-60
2022/07/29 09:18:37;;;;;;;7.53;3.40;;;25.70;94.00;;;;;;5050409;28;20035;-60
2022/07/29 09:24:00;;;;;;;6.35;3.33;;;25.70;93.20;;;;;;5054736;28;20506;-58
2022/07/29 09:26:37;;;;;;;10.20;3.60;;;25.90;93.00;;;;;;5054964;28;20116;-58
2022/07/29 09:29:18;;;;;;;7.50;3.60;;;26.10;93.40;;;;;;5048428;28;20132;-59
2022/07/29 09:31:49;;;;;;;5.63;2.78;;;26.10;92.70;;;;;;5055776;28;20028;-59
2022/07/29 09:34:20;;;;;;;6.68;3.60;;;26.00;92.20;;;;;;5053260;28;20051;-59
2022/07/29 09:36:49;;;;;;;5.45;3.08;;;26.00;92.40;;;;;;5058926;28;20539;-59
2022/07/29 09:39:26;;;;;;;7.68;3.20;;;26.00;92.30;;;;;;5062316;28;20036;-59
2022/07/29 09:41:55;;;;;;;7.97;3.55;;;25.90;93.30;;;;;;5069060;28;20044;-61
2022/07/29 09:44:22;;;;;;;12.77;4.68;;;25.80;91.90;;;;;;5069823;28;20117;-60
2022/07/29 09:47:06;;;;;;;8.45;4.15;;;25.90;93.10;;;;;;5052101;28;20028;-60
2022/07/29 09:49:57;;;;;;;8.73;3.33;;;26.00;93.10;;;;;;5056597;28;20131;-60
2022/07/29 09:52:24;;;;;;;12.40;3.72;;;25.80;92.10;;;;;;5038688;28;20017;-60
2022/07/29 09:54:50;;;;;;;10.77;4.47;;;25.90;92.90;;;;;;5048049;28;20032;-60
2022/07/29 09:57:24;;;;;;;14.65;3.92;;;25.90;92.30;;;;;;5057603;28;20075;-61
2022/07/29 10:00:05;;;;;;;7.40;2.95;;;26.00;92.90;;;;;;5047522;28;20037;-61
2022/07/29 10:02:32;;;;;;;6.72;3.58;;;26.20;92.10;;;;;;5047677;28;20025;-60
2022/07/29 10:05:00;;;;;;;6.70;3.50;;;26.50;92.90;;;;;;5047792;28;20029;-60
2022/07/29 10:07:42;;;;;;;5.53;3.00;;;26.70;91.30;;;;;;5048380;28;20025;-60
2022/07/29 10:10:08;;;;;;;6.75;3.42;;;27.00;91.50;;;;;;5049905;28;20087;-59
2022/07/29 10:12:34;;;;;;;7.68;3.00;;;27.10;90.20;;;;;;5053250;28;20056;-60
2022/07/29 10:15:02;;;;;;;13.48;2.95;;;27.00;88.80;;;;;;5053514;28;20465;-61
2022/07/29 10:17:28;;;;;;;10.50;3.45;;;26.90;88.80;;;;;;5052330;28;20110;-60
2022/07/29 10:19:55;;;;;;;5.15;3.70;;;26.80;89.10;;;;;;5052817;28;20734;-60
2022/07/29 10:22:21;;;;;;;9.68;3.38;;;26.70;91.30;;;;;;5053145;28;20063;-60
2022/07/29 10:24:48;;;;;;;7.23;3.00;;;26.60;89.40;;;;;;5053074;28;20489;-60
2022/07/29 10:27:13;;;;;;;31.65;4.70;;;26.90;90.60;;;;;;5053101;28;20532;-60
2022/07/29 10:29:39;;;;;;;10.05;3.45;;;27.20;91.30;;;;;;5052955;28;20117;-60
2022/07/29 10:32:39;;;;;;;4.50;3.22;;;27.50;90.70;;;;;;5053113;28;20039;-60
2022/07/29 10:35:31;;;;;;;9.27;3.15;;;27.70;85.80;;;;;;5053253;28;20040;-60
2022/07/29 10:38:24;;;;;;;12.98;3.28;;;28.10;85.20;;;;;;5053200;28;20029;-60
2022/07/29 10:41:27;;;;;;;6.68;3.25;;;28.20;85.50;;;;;;5052900;28;20102;-60
2022/07/29 10:44:00;;;;;;;4.22;2.67;;;28.50;86.40;;;;;;5034989;28;20083;-60
2022/07/29 10:46:27;;;;;;;7.82;3.95;;;28.30;85.70;;;;;;5053198;28;20021;-60
2022/07/29 10:49:06;;;;;;;8.68;3.13;;;28.20;80.30;;;;;;5052883;28;20419;-60
2022/07/29 10:51:54;;;;;;;9.65;3.80;;;28.00;82.40;;;;;;5052939;28;20029;-60
2022/07/29 10:54:47;;;;;;;6.88;3.47;;;28.10;80.50;;;;;;5052809;28;20037;-60
2022/07/29 10:57:16;;;;;;;11.68;3.13;;;28.00;82.80;;;;;;5052865;28;20108;-60
2022/07/29 11:00:08;;;;;;;8.20;2.97;;;28.00;81.90;;;;;;5052660;28;20017;-61
2022/07/29 11:02:35;;;;;;;6.43;3.22;;;28.10;83.20;;;;;;5039951;28;20623;-61
2022/07/29 11:05:23;;;;;;;;;;;27.70;79.50;;;;;;5053099;28;20021;-60
2022/07/29 11:08:13;;;;;;;9.68;3.42;;;27.60;78.50;;;;;;5052808;28;19949;-60
2022/07/29 11:10:40;;;;;;;11.95;3.53;;;27.50;82.00;;;;;;5052348;28;20436;-61
2022/07/29 11:13:06;;;;;;;13.82;3.25;;;27.40;82.80;;;;;;5051420;28;20031;-60
2022/07/29 11:15:55;;;;;;;9.13;3.10;;;27.30;82.80;;;;;;5052607;28;20366;-60
2022/07/29 11:18:21;;;;;;;8.80;3.42;;;27.40;81.90;;;;;;5052484;28;20108;-61
2022/07/29 11:20:49;;;;;;;7.80;2.97;;;27.40;81.80;;;;;;5034356;28;20112;-61
2022/07/29 11:23:18;;;;;;;6.72;3.10;;;27.30;80.80;;;;;;5051477;28;20025;-61
2022/07/29 11:25:44;;;;;;;9.48;3.78;;;27.20;84.80;;;;;;5052358;28;20033;-61
2022/07/29 11:28:22;;;;;;;17.40;4.55;;;27.30;83.70;;;;;;5052585;28;20021;-62
2022/07/29 11:30:52;;;;;;;12.00;3.75;;;27.50;85.30;;;;;;5034049;28;20048;-61
2022/07/29 11:33:31;;;;;;;6.28;3.03;;;27.80;83.10;;;;;;5052191;28;20491;-61
2022/07/29 11:36:14;;;;;;;11.05;3.08;;;27.90;81.00;;;;;;5052221;28;20036;-62
2022/07/29 11:38:40;;;;;;;10.20;3.10;;;28.10;79.30;;;;;;5052552;28;20032;-61
2022/07/29 11:41:26;;;;;;;13.63;3.53;;;28.00;79.10;;;;;;5052027;28;20040;-62
2022/07/29 11:44:00;;;;;;;12.05;3.40;;;28.10;79.30;;;;;;5034040;28;20028;-61
2022/07/29 11:46:54;;;;;;;8.07;3.20;;;28.10;79.00;;;;;;5052410;28;20025;-61
2022/07/29 11:49:20;;;;;;;8.25;3.13;;;28.10;76.20;;;;;;5051876;28;20052;-61
2022/07/29 11:52:05;;;;;;;10.10;3.35;;;28.10;77.70;;;;;;5051738;28;20029;-62
2022/07/29 11:54:33;;;;;;;6.85;3.45;;;27.90;76.30;;;;;;5051886;28;20029;-62
2022/07/29 11:56:59;;;;;;;4.70;3.00;;;27.70;76.20;;;;;;5051830;28;20029;-62
2022/07/29 11:59:26;;;;;;;5.47;3.20;;;27.60;80.30;;;;;;5051917;28;20060;-62
2022/07/29 12:01:57;;;;;;;6.00;2.92;;;27.50;77.70;;;;;;5033648;28;20674;-61
2022/07/29 12:04:24;;;;;;;13.88;3.47;;;27.40;79.80;;;;;;5051601;28;20078;-61
2022/07/29 12:06:50;;;;;;;6.80;3.05;;;27.20;78.90;;;;;;5051816;28;20029;-62
2022/07/29 12:09:17;;;;;;;7.63;3.07;;;27.20;78.70;;;;;;5051347;28;20021;-61
2022/07/29 12:11:43;;;;;;;11.80;3.00;;;27.10;83.00;;;;;;5051363;28;20112;-62
2022/07/29 12:14:09;;;;;;;7.30;2.97;;;27.10;83.40;;;;;;5051429;28;20029;-61
2022/07/29 12:16:38;;;;;;;5.60;2.97;;;27.00;80.90;;;;;;5051562;28;20041;-61
2022/07/29 12:19:04;;;;;;;6.18;3.20;;;27.10;81.70;;;;;;5050050;28;20025;-61
2022/07/29 12:21:51;;;;;;;10.60;3.50;;;27.20;81.80;;;;;;5051439;28;20036;-61
2022/07/29 12:24:19;;;;;;;7.50;3.37;;;27.30;82.00;;;;;;5051284;28;20017;-61
2022/07/29 12:26:52;;;;;;;8.98;3.45;;;27.30;82.10;;;;;;5051105;28;20032;-61
2022/07/29 12:29:19;;;;;;;4.57;2.88;;;27.30;81.40;;;;;;5051082;28;20044;-61
2022/07/29 12:31:46;;;;;;;7.45;2.85;;;27.40;82.90;;;;;;5051077;28;20029;-62
2022/07/29 12:34:13;;;;;;;7.63;3.53;;;27.50;83.30;;;;;;5050839;28;20033;-63
2022/07/29 12:36:40;;;;;;;10.23;3.55;;;27.50;82.20;;;;;;5016771;28;20025;-62
2022/07/29 12:39:06;;;;;;;6.25;3.00;;;27.40;81.20;;;;;;5050981;28;20033;-62
2022/07/29 12:41:32;;;;;;;5.60;2.85;;;27.40;80.40;;;;;;5050765;28;20043;-63
2022/07/29 12:43:58;;;;;;;13.80;3.77;;;27.50;81.50;;;;;;5050955;28;20511;-62
2022/07/29 12:46:23;;;;;;;6.70;2.65;;;27.50;83.10;;;;;;5050935;28;20029;-63
2022/07/29 12:48:57;;;;;;;15.27;3.83;;;27.40;80.20;;;;;;5050596;28;20746;-62
2022/07/29 12:51:38;;;;;;;7.80;3.13;;;27.50;80.40;;;;;;5033520;28;20017;-62
2022/07/29 12:54:10;;;;;;;10.40;3.22;;;27.60;83.00;;;;;;5050843;28;20032;-62
2022/07/29 12:56:37;;;;;;;7.95;3.05;;;27.90;82.70;;;;;;5033032;28;20021;-61
2022/07/29 12:59:24;;;;;;;6.75;3.03;;;28.20;82.90;;;;;;5050674;28;20029;-61
2022/07/29 13:01:51;;;;;;;6.00;2.83;;;28.60;79.00;;;;;;5050694;28;20041;-62
2022/07/29 13:04:46;;;;;;;;;;;29.20;79.80;;;;;;5051070;28;20025;-63
2022/07/29 13:07:14;;;;;;;8.25;3.00;;;29.40;77.10;;;;;;5041366;28;19909;-63